Time;durP1;ratioP1;P1;durP2;ratioP2;P2;SDS_P1;SDS_P2;PMS_P1;PMS_P2;Temp;Humidity;BMP_temperature;BMP_pressure;BME280_temperature;BME280_humidity;BME280_pressure;Samples;Min_cycle;Max_cycle;Signal;HPM_P1;HPM_P2
2022/04/10 00:02:17;;;;;;;5.10;2.00;;;15.40;88.90;;;;;;5075819;28;20044;-62
2022/04/10 00:04:43;;;;;;;7.20;1.80;;;;;;;;;;5095766;28;20044;-62
2022/04/10 00:07:09;;;;;;;8.02;1.50;;;15.20;88.90;;;;;;5083400;28;20048;-62
2022/04/10 00:09:34;;;;;;;6.45;1.80;;;15.00;85.80;;;;;;5073959;28;20056;-62
2022/04/10 00:12:00;;;;;;;8.07;1.90;;;;;;;;;;5073128;28;20059;-62
2022/04/10 00:14:26;;;;;;;4.82;1.50;;;15.20;86.30;;;;;;5085822;28;20048;-62
2022/04/10 00:16:52;;;;;;;6.57;1.67;;;15.20;88.70;;;;;;5076662;28;20047;-62
2022/04/10 00:19:19;;;;;;;5.80;1.80;;;;;;;;;;5074680;28;20048;-62
2022/04/10 00:21:46;;;;;;;8.13;2.30;;;15.30;88.80;;;;;;5073112;28;20079;-62
2022/04/10 00:24:12;;;;;;;4.93;1.48;;;15.30;88.90;;;;;;5075546;28;20456;-62
2022/04/10 00:26:38;;;;;;;6.93;1.88;;;15.30;88.90;;;;;;5076473;28;20116;-62
2022/04/10 00:29:04;;;;;;;7.68;1.90;;;15.20;88.60;;;;;;5074795;28;20076;-62
2022/04/10 00:31:29;;;;;;;4.72;1.73;;;15.30;86.00;;;;;;5075082;28;20044;-62
2022/04/10 00:33:55;;;;;;;6.43;1.88;;;;;;;;;;5093312;28;20046;-62
2022/04/10 00:36:21;;;;;;;6.50;1.83;;;15.10;88.60;;;;;;5093203;28;20048;-62
2022/04/10 00:38:47;;;;;;;6.90;1.92;;;15.30;86.00;;;;;;5080814;28;20452;-62
2022/04/10 00:41:13;;;;;;;6.07;1.77;;;14.80;88.40;;;;;;5075368;28;20091;-62
2022/04/10 00:43:39;;;;;;;6.57;1.75;;;15.30;86.10;;;;;;5074497;28;20048;-62
2022/04/10 00:46:05;;;;;;;5.53;1.40;;;14.80;88.40;;;;;;5074285;28;20037;-62
2022/04/10 00:48:32;;;;;;;6.63;1.80;;;15.30;88.60;;;;;;5075020;28;20577;-62
2022/04/10 00:53:42;;;;;;;8.07;2.03;;;15.40;88.70;;;;;;5077686;28;20094;-62
2022/04/10 00:56:08;;;;;;;6.95;1.85;;;15.00;88.40;;;;;;5074678;28;20045;-63
2022/04/10 00:58:33;;;;;;;8.10;1.95;;;15.10;88.40;;;;;;5056209;28;20044;-62
2022/04/10 01:00:59;;;;;;;6.45;2.08;;;15.30;86.70;;;;;;5072551;28;20562;-62
2022/04/10 01:03:25;;;;;;;6.20;1.80;;;;;;;;;;5073959;28;20040;-63
2022/04/10 01:05:51;;;;;;;5.80;1.70;;;15.10;88.30;;;;;;5086888;28;20055;-62
2022/04/10 01:08:17;;;;;;;7.93;1.80;;;14.90;88.40;;;;;;5073556;28;20494;-62
2022/04/10 01:10:42;;;;;;;7.32;1.90;;;15.10;88.20;;;;;;5039116;28;20048;-62
2022/04/10 01:13:09;;;;;;;8.10;1.77;;;;;;;;;;5072363;28;20051;-64
2022/04/10 01:15:35;;;;;;;5.97;1.65;;;15.20;87.50;;;;;;5081401;28;20090;-64
2022/04/10 01:18:01;;;;;;;6.20;1.70;;;15.10;88.00;;;;;;5076305;28;20131;-64
2022/04/10 01:20:26;;;;;;;8.20;1.98;;;14.90;85.10;;;;;;5092746;28;20132;-62
2022/04/10 01:22:52;;;;;;;7.95;1.70;;;15.00;87.90;;;;;;5078671;28;20087;-62
2022/04/10 01:25:18;;;;;;;8.15;1.95;;;14.90;87.70;;;;;;5056998;28;20488;-62
2022/04/10 01:27:44;;;;;;;6.88;1.80;;;15.10;85.10;;;;;;5093862;28;20456;-63
2022/04/10 01:30:11;;;;;;;4.97;1.73;;;14.90;87.70;;;;;;5092905;28;20052;-63
2022/04/10 01:32:37;;;;;;;7.65;1.80;;;14.70;84.70;;;;;;5093858;28;20040;-63
2022/04/10 01:35:03;;;;;;;7.45;2.05;;;14.90;87.60;;;;;;5093802;28;20477;-63
2022/04/10 01:37:29;;;;;;;6.53;2.00;;;15.10;85.00;;;;;;5079556;28;20044;-62
2022/04/10 01:39:55;;;;;;;4.07;1.60;;;15.00;87.80;;;;;;5075896;28;20109;-63
2022/04/10 01:42:20;;;;;;;8.05;1.88;;;15.00;87.70;;;;;;5090534;28;20448;-63
2022/04/10 01:44:46;;;;;;;8.55;1.67;;;15.00;84.90;;;;;;5080912;28;20049;-62
2022/04/10 01:47:12;;;;;;;6.47;1.70;;;14.80;87.50;;;;;;5079024;28;20564;-62
2022/04/10 01:49:37;;;;;;;6.20;1.88;;;14.80;87.40;;;;;;5090767;28;20044;-63
2022/04/10 01:52:04;;;;;;;4.30;1.45;;;15.00;87.60;;;;;;5074556;28;20041;-64
2022/04/10 01:54:30;;;;;;;6.60;1.90;;;14.60;87.30;;;;;;5093622;28;20455;-62
2022/04/10 01:56:56;;;;;;;5.50;1.75;;;14.90;85.30;;;;;;5089682;28;20137;-63
2022/04/10 01:59:21;;;;;;;5.50;1.70;;;15.00;87.40;;;;;;5073810;28;20080;-63
2022/04/10 02:01:48;;;;;;;7.18;2.20;;;14.70;87.40;;;;;;5072014;28;20048;-62
2022/04/10 02:04:14;;;;;;;7.22;2.10;;;15.00;87.50;;;;;;5073015;28;20084;-63
2022/04/10 02:06:40;;;;;;;7.65;2.00;;;14.90;87.20;;;;;;5086044;28;20043;-62
2022/04/10 02:09:08;;;;;;;8.50;1.80;;;14.90;87.20;;;;;;5081466;28;20628;-62
2022/04/10 02:11:34;;;;;;;7.78;2.00;;;14.80;87.10;;;;;;5072996;28;20135;-63
2022/04/10 02:14:00;;;;;;;8.60;2.10;;;14.90;87.10;;;;;;5076226;28;20119;-63
2022/04/10 02:16:26;;;;;;;8.85;2.00;;;;;;;;;;5093132;28;20477;-62
2022/04/10 02:18:52;;;;;;;8.68;2.00;;;14.70;87.00;;;;;;5092095;28;20121;-63
2022/04/10 02:21:18;;;;;;;7.70;1.80;;;;;;;;;;5086586;28;20502;-62
2022/04/10 02:23:44;;;;;;;7.78;2.05;;;;;;;;;;5073132;28;20056;-64
2022/04/10 02:26:10;;;;;;;9.13;2.00;;;14.70;87.20;;;;;;5073139;28;20166;-63
2022/04/10 02:28:36;;;;;;;5.78;2.20;;;14.80;84.50;;;;;;5072774;28;20517;-64
2022/04/10 02:31:02;;;;;;;6.82;1.73;;;;;;;;;;5074209;28;20440;-63
2022/04/10 02:33:28;;;;;;;6.07;1.90;;;14.70;84.30;;;;;;5072856;28;20045;-62
2022/04/10 02:35:54;;;;;;;9.95;2.47;;;14.70;87.00;;;;;;5074602;28;20041;-63
2022/04/10 02:38:19;;;;;;;7.22;2.00;;;14.70;87.20;;;;;;5093536;28;20458;-63
2022/04/10 02:40:45;;;;;;;8.52;1.75;;;14.70;84.30;;;;;;5085817;28;20076;-62
2022/04/10 02:43:13;;;;;;;6.25;1.98;;;14.70;87.00;;;;;;5076567;28;20040;-62
2022/04/10 02:45:40;;;;;;;7.57;1.95;;;14.80;84.50;;;;;;5076099;28;20048;-62
2022/04/10 02:48:06;;;;;;;9.07;2.10;;;15.00;87.10;;;;;;5080310;28;20422;-62
2022/04/10 02:50:32;;;;;;;6.70;1.83;;;14.60;86.70;;;;;;5082487;28;20049;-66
2022/04/10 02:52:58;;;;;;;8.98;2.03;;;14.80;87.00;;;;;;5095861;28;20040;-63
2022/04/10 02:55:24;;;;;;;8.93;1.90;;;14.70;86.90;;;;;;5096610;28;20040;-62
2022/04/10 02:57:50;;;;;;;5.47;2.00;;;;;;;;;;5096314;28;20496;-62
2022/04/10 03:00:16;;;;;;;6.93;2.05;;;14.60;87.00;;;;;;5096256;28;20044;-63
2022/04/10 03:02:42;;;;;;;7.05;1.50;;;14.70;87.20;;;;;;5082948;28;20054;-63
2022/04/10 03:05:08;;;;;;;5.57;1.80;;;14.80;87.20;;;;;;5080458;28;20044;-64
2022/04/10 03:07:34;;;;;;;8.73;2.00;;;14.90;87.10;;;;;;5096216;28;20040;-62
2022/04/10 03:10:00;;;;;;;5.35;1.70;;;14.80;87.00;;;;;;5096025;28;20390;-62
2022/04/10 03:12:25;;;;;;;7.80;2.05;;;14.40;86.70;;;;;;5078188;28;20117;-63
2022/04/10 03:14:51;;;;;;;7.60;1.83;;;14.90;87.00;;;;;;5078522;28;20044;-63
2022/04/10 03:17:17;;;;;;;7.22;1.80;;;14.70;87.50;;;;;;5095977;28;20114;-63
2022/04/10 03:19:43;;;;;;;7.35;1.80;;;;;;;;;;5095821;28;20139;-63
2022/04/10 03:22:08;;;;;;;7.40;2.03;;;14.40;86.70;;;;;;5092384;28;20045;-63
2022/04/10 03:24:34;;;;;;;6.60;2.03;;;14.80;84.30;;;;;;5076530;28;20561;-64
2022/04/10 03:27:00;;;;;;;6.55;1.73;;;14.70;86.90;;;;;;5075682;28;20037;-62
2022/04/10 03:29:26;;;;;;;4.95;1.63;;;14.40;84.20;;;;;;5075774;28;20548;-63
2022/04/10 03:31:51;;;;;;;5.18;1.70;;;14.30;86.80;;;;;;5075743;28;20032;-62
2022/04/10 03:34:17;;;;;;;5.22;1.52;;;14.50;84.30;;;;;;5078406;28;20459;-64
2022/04/10 03:36:43;;;;;;;4.57;1.52;;;14.50;84.30;;;;;;5075668;28;20048;-63
2022/04/10 03:39:09;;;;;;;5.97;1.63;;;14.60;87.00;;;;;;5076120;28;20080;-65
2022/04/10 03:41:35;;;;;;;6.03;1.70;;;;;;;;;;5092334;28;20072;-62
2022/04/10 03:44:01;;;;;;;6.07;1.67;;;;;;;;;;5088053;28;20094;-65
2022/04/10 03:46:26;;;;;;;6.07;2.13;;;14.60;86.80;;;;;;5081485;28;20086;-62
2022/04/10 03:48:52;;;;;;;4.25;1.77;;;14.60;86.90;;;;;;5073940;28;20088;-65
2022/04/10 03:51:18;;;;;;;8.05;2.20;;;14.60;86.90;;;;;;5075085;28;20037;-62
2022/04/10 03:53:44;;;;;;;7.07;1.52;;;14.70;86.90;;;;;;5073400;28;20071;-63
2022/04/10 03:56:10;;;;;;;7.68;1.70;;;14.80;86.90;;;;;;5077975;28;20028;-63
2022/04/10 03:58:35;;;;;;;6.97;2.15;;;14.60;87.00;;;;;;5073868;28;20049;-62
2022/04/10 04:01:02;;;;;;;6.45;1.92;;;14.20;86.70;;;;;;5075383;28;20094;-63
2022/04/10 04:03:27;;;;;;;8.68;1.70;;;14.30;86.80;;;;;;5073461;28;20049;-62
2022/04/10 04:05:55;;;;;;;9.38;1.80;;;14.50;86.80;;;;;;5079297;28;20048;-63
2022/04/10 04:08:21;;;;;;;5.43;1.60;;;14.30;86.70;;;;;;5094911;28;20059;-63
2022/04/10 04:10:47;;;;;;;5.95;1.92;;;14.50;87.00;;;;;;5094021;28;20048;-63
2022/04/10 04:13:12;;;;;;;6.03;1.90;;;14.60;84.30;;;;;;5089935;28;20036;-62
2022/04/10 04:15:38;;;;;;;4.80;1.73;;;14.60;86.90;;;;;;5075898;28;20096;-63
2022/04/10 04:18:04;;;;;;;7.57;2.10;;;14.40;86.90;;;;;;5075459;28;20051;-62
2022/04/10 04:20:30;;;;;;;5.70;1.50;;;;;;;;;;5075024;28;20106;-62
2022/04/10 04:22:56;;;;;;;7.30;1.88;;;14.60;86.90;;;;;;5074690;28;20468;-62
2022/04/10 04:25:22;;;;;;;7.30;1.67;;;14.60;84.30;;;;;;5074286;28;20044;-64
2022/04/10 04:27:47;;;;;;;4.60;1.30;;;14.70;86.70;;;;;;5081960;28;20036;-63
2022/04/10 04:30:13;;;;;;;7.85;1.75;;;14.40;84.10;;;;;;5084885;28;20037;-63
2022/04/10 04:32:39;;;;;;;5.53;1.95;;;;;;;;;;5073392;28;20086;-63
2022/04/10 04:35:06;;;;;;;5.97;1.75;;;14.50;86.80;;;;;;5074455;28;20037;-63
2022/04/10 04:37:31;;;;;;;7.22;1.98;;;14.50;86.60;;;;;;5080765;28;20375;-63
2022/04/10 04:39:57;;;;;;;6.13;1.58;;;14.70;86.80;;;;;;5094127;28;20036;-63
2022/04/10 04:42:23;;;;;;;7.32;2.00;;;14.40;86.70;;;;;;5093133;28;20059;-63
2022/04/10 04:44:48;;;;;;;4.20;1.38;;;14.60;84.00;;;;;;5094645;28;20157;-64
2022/04/10 04:47:14;;;;;;;5.22;1.70;;;14.70;86.60;;;;;;5088238;28;20045;-63
2022/04/10 04:49:40;;;;;;;6.13;1.83;;;14.60;84.00;;;;;;5075107;28;20040;-62
2022/04/10 04:52:06;;;;;;;7.82;2.10;;;14.70;86.70;;;;;;5073238;28;20064;-62
2022/04/10 04:54:32;;;;;;;7.22;1.75;;;14.50;87.40;;;;;;5074148;28;20033;-63
2022/04/10 04:56:58;;;;;;;5.85;2.13;;;;;;;;;;5082288;28;20036;-68
2022/04/10 04:59:23;;;;;;;4.97;1.52;;;14.80;86.80;;;;;;5077457;28;20094;-63
2022/04/10 05:01:49;;;;;;;7.25;1.83;;;14.70;86.70;;;;;;5077055;28;20437;-62
2022/04/10 05:04:15;;;;;;;4.55;1.50;;;14.50;86.60;;;;;;5079245;28;20481;-63
2022/04/10 05:06:41;;;;;;;5.82;1.50;;;14.30;86.70;;;;;;5092911;28;20418;-64
2022/04/10 05:09:06;;;;;;;6.40;1.70;;;14.50;86.90;;;;;;5082033;28;20052;-62
2022/04/10 05:11:33;;;;;;;6.30;1.90;;;14.80;86.80;;;;;;5073346;28;20127;-63
2022/04/10 05:13:59;;;;;;;6.63;1.88;;;14.10;86.50;;;;;;5073877;28;20051;-63
2022/04/10 05:16:24;;;;;;;5.90;1.15;;;14.50;86.70;;;;;;5073816;28;20393;-64
2022/04/10 05:18:50;;;;;;;5.68;1.60;;;14.50;86.60;;;;;;5074725;28;20559;-62
2022/04/10 05:21:16;;;;;;;6.18;1.65;;;14.40;84.00;;;;;;5073702;28;20048;-63
2022/04/10 05:23:42;;;;;;;5.18;1.30;;;14.50;86.60;;;;;;5073399;28;20048;-62
2022/04/10 05:26:08;;;;;;;6.85;1.50;;;14.40;83.90;;;;;;5072254;28;20037;-65
2022/04/10 05:28:37;;;;;;;5.88;1.60;;;;;;;;;;5073615;28;20092;-62
2022/04/10 05:31:03;;;;;;;5.00;1.40;;;14.30;86.40;;;;;;5075328;28;20516;-62
2022/04/10 05:33:29;;;;;;;5.28;1.58;;;14.40;83.80;;;;;;5071497;28;20131;-62
2022/04/10 05:35:55;;;;;;;3.53;1.10;;;14.60;86.50;;;;;;5071941;28;20131;-62
2022/04/10 05:38:23;;;;;;;4.50;1.15;;;14.70;83.90;;;;;;5073819;28;20048;-63
2022/04/10 05:40:52;;;;;;;4.00;1.15;;;14.70;86.30;;;;;;5074903;28;20402;-63
2022/04/10 05:43:24;;;;;;;4.35;1.30;;;14.80;83.60;;;;;;5084803;28;20047;-64
2022/04/10 05:45:50;;;;;;;3.85;1.33;;;14.40;86.00;;;;;;5093730;28;20062;-63
2022/04/10 05:48:16;;;;;;;4.43;1.40;;;14.60;86.10;;;;;;5092088;28;20552;-64
2022/04/10 05:50:42;;;;;;;4.85;1.48;;;;;;;;;;5091281;28;20105;-62
2022/04/10 05:53:08;;;;;;;5.18;1.38;;;14.80;86.10;;;;;;5079837;28;20032;-65
2022/04/10 05:55:34;;;;;;;4.47;1.23;;;14.90;83.50;;;;;;5085031;28;20047;-63
2022/04/10 05:58:04;;;;;;;5.60;1.20;;;;;;;;;;5084352;28;20101;-62
2022/04/10 06:00:29;;;;;;;6.10;1.38;;;15.00;86.20;;;;;;5093313;28;20109;-63
2022/04/10 06:02:56;;;;;;;5.43;1.35;;;;;;;;;;5078781;28;20048;-65
2022/04/10 06:05:22;;;;;;;4.32;1.40;;;;;;;;;;5074044;28;20087;-63
2022/04/10 06:07:48;;;;;;;4.55;1.30;;;15.20;85.80;;;;;;5073145;28;20053;-63
2022/04/10 06:10:14;;;;;;;6.80;2.20;;;;;;;;;;5084319;28;20496;-63
2022/04/10 06:12:40;;;;;;;4.75;1.08;;;15.30;85.50;;;;;;5084509;28;20079;-62
2022/04/10 06:15:06;;;;;;;5.18;1.38;;;15.20;85.50;;;;;;5081612;28;20076;-68
2022/04/10 06:17:32;;;;;;;3.25;1.30;;;15.30;82.70;;;;;;5097152;28;20044;-68
2022/04/10 06:19:58;;;;;;;4.13;1.10;;;;;;;;;;5096197;28;20378;-62
2022/04/10 06:22:25;;;;;;;4.38;1.27;;;;;;;;;;5096033;28;20047;-63
2022/04/10 06:24:51;;;;;;;4.63;1.20;;;15.20;85.40;;;;;;5078466;28;20044;-62
2022/04/10 06:27:17;;;;;;;5.38;1.45;;;15.20;82.80;;;;;;5097449;28;20170;-62
2022/04/10 06:29:43;;;;;;;4.90;1.60;;;15.60;85.70;;;;;;5087656;28;20115;-63
2022/04/10 06:32:09;;;;;;;3.38;1.20;;;15.50;83.00;;;;;;5079387;28;20135;-63
2022/04/10 06:34:35;;;;;;;6.43;1.25;;;;;;;;;;5077980;28;20145;-64
2022/04/10 06:37:01;;;;;;;6.55;1.48;;;15.50;85.60;;;;;;5077880;28;20048;-62
2022/04/10 06:39:26;;;;;;;4.25;1.48;;;15.40;85.70;;;;;;5076446;28;20118;-63
2022/04/10 06:41:52;;;;;;;3.22;1.13;;;15.40;85.50;;;;;;5075910;28;20048;-65
2022/04/10 06:44:18;;;;;;;5.60;1.20;;;15.70;84.70;;;;;;5078989;28;20044;-63
2022/04/10 06:46:44;;;;;;;4.07;1.42;;;;;;;;;;5082642;28;20093;-63
2022/04/10 06:49:12;;;;;;;4.50;1.42;;;;;;;;;;5096359;28;20130;-64
2022/04/10 06:51:38;;;;;;;4.38;1.13;;;16.30;82.60;;;;;;5095176;28;20044;-63
2022/04/10 06:54:04;;;;;;;4.72;1.25;;;16.20;85.10;;;;;;5095422;28;20052;-63
2022/04/10 06:56:30;;;;;;;3.50;1.25;;;;;;;;;;5078980;28;20047;-64
2022/04/10 06:58:56;;;;;;;3.83;1.23;;;16.00;84.80;;;;;;5083032;28;20386;-64
2022/04/10 07:01:22;;;;;;;4.00;0.93;;;16.20;84.80;;;;;;5058118;28;20052;-65
2022/04/10 07:03:47;;;;;;;3.42;1.00;;;16.40;85.00;;;;;;5088763;28;20473;-64
2022/04/10 07:06:13;;;;;;;3.45;1.10;;;16.30;85.00;;;;;;5087357;28;20505;-62
2022/04/10 07:08:39;;;;;;;2.55;0.98;;;16.50;82.20;;;;;;5075666;28;20410;-66
2022/04/10 07:11:05;;;;;;;3.67;1.27;;;16.90;85.10;;;;;;5074309;28;20049;-63
2022/04/10 07:13:31;;;;;;;5.57;1.45;;;;;;;;;;5076577;28;20048;-70
2022/04/10 07:15:57;;;;;;;3.28;0.98;;;17.10;84.70;;;;;;5084703;28;20366;-69
2022/04/10 07:18:23;;;;;;;3.17;1.25;;;17.10;84.60;;;;;;5076281;28;20045;-70
2022/04/10 07:20:48;;;;;;;6.00;1.48;;;17.10;84.30;;;;;;5078823;28;20044;-64
2022/04/10 07:25:59;;;;;;;3.97;1.10;;;17.30;84.10;;;;;;5085652;28;20047;-62
2022/04/10 07:28:25;;;;;;;4.38;1.20;;;;;;;;;;5077906;28;20460;-62
2022/04/10 07:30:51;;;;;;;5.38;1.30;;;17.20;83.60;;;;;;5074339;28;20087;-63
2022/04/10 07:33:17;;;;;;;3.25;0.93;;;17.80;83.60;;;;;;5075079;28;20076;-68
2022/04/10 07:35:44;;;;;;;4.07;1.20;;;17.90;83.40;;;;;;5086451;28;20052;-63
2022/04/10 07:38:12;;;;;;;3.42;1.27;;;18.00;83.30;;;;;;5084624;28;20040;-64
2022/04/10 07:40:38;;;;;;;4.72;1.67;;;17.80;83.10;;;;;;5094164;28;20048;-63
2022/04/10 07:43:04;;;;;;;5.82;1.52;;;17.80;82.80;;;;;;5094329;28;20486;-63
2022/04/10 07:48:15;;;;;;;5.07;1.45;;;18.00;82.60;;;;;;5076630;28;20052;-64
2022/04/10 07:50:40;;;;;;;4.63;1.05;;;17.90;79.50;;;;;;5093952;28;20044;-65
2022/04/10 07:53:09;;;;;;;3.70;1.33;;;18.10;78.10;;;;;;5095209;28;20040;-63
2022/04/10 07:55:35;;;;;;;3.88;1.10;;;18.10;82.60;;;;;;5078427;28;20044;-62
2022/04/10 07:58:00;;;;;;;4.40;1.30;;;18.00;82.60;;;;;;5092169;28;20542;-63
2022/04/10 08:00:32;;;;;;;4.35;1.27;;;;;;;;;;5075896;28;20048;-63
2022/04/10 08:02:58;;;;;;;4.38;1.13;;;;;;;;;;5074731;28;20041;-66
2022/04/10 08:05:23;;;;;;;4.75;1.50;;;17.40;82.50;;;;;;5094919;28;20048;-63
2022/04/10 08:07:49;;;;;;;4.40;1.52;;;17.80;82.90;;;;;;5080520;28;20053;-63
2022/04/10 08:10:15;;;;;;;4.78;1.88;;;17.80;82.80;;;;;;5074711;28;20397;-62
2022/04/10 08:12:41;;;;;;;3.55;1.42;;;17.60;82.90;;;;;;5091439;28;20043;-63
2022/04/10 08:15:08;;;;;;;4.90;1.48;;;17.70;83.00;;;;;;5094935;28;20040;-62
2022/04/10 08:17:33;;;;;;;4.07;1.48;;;17.60;82.90;;;;;;5087587;28;20060;-62
2022/04/10 08:20:03;;;;;;;4.07;1.30;;;;;;;;;;5073951;28;20036;-66
2022/04/10 08:22:32;;;;;;;4.63;1.35;;;17.50;83.10;;;;;;5072903;28;20552;-63
2022/04/10 08:25:09;;;;;;;5.05;1.55;;;17.60;83.20;;;;;;5074026;28;20043;-65
2022/04/10 08:27:36;;;;;;;4.78;1.50;;;17.60;81.40;;;;;;5072385;28;20041;-67
2022/04/10 08:30:08;;;;;;;4.07;1.60;;;17.50;83.10;;;;;;5089237;28;20048;-70
2022/04/10 08:32:42;;;;;;;4.97;1.58;;;17.70;78.90;;;;;;5076442;28;20123;-62
2022/04/10 08:35:08;;;;;;;5.40;1.45;;;17.50;83.10;;;;;;5085394;28;20577;-64
2022/04/10 08:37:34;;;;;;;5.03;1.40;;;17.50;83.00;;;;;;5092894;28;20500;-62
2022/04/10 08:40:00;;;;;;;8.18;1.90;;;;;;;;;;5086041;28;20040;-69
2022/04/10 08:42:26;;;;;;;4.90;1.50;;;17.80;80.70;;;;;;5074142;28;20048;-64
2022/04/10 08:44:54;;;;;;;6.47;1.50;;;17.50;83.50;;;;;;5075853;28;20097;-64
2022/04/10 08:47:23;;;;;;;7.10;1.50;;;17.50;83.60;;;;;;5092662;28;20554;-64
2022/04/10 08:49:49;;;;;;;4.25;1.58;;;17.30;83.40;;;;;;5093276;28;20116;-64
2022/04/10 08:52:19;;;;;;;5.20;1.38;;;17.60;83.50;;;;;;5072405;28;20040;-63
2022/04/10 08:54:45;;;;;;;4.50;1.77;;;17.80;83.50;;;;;;5094238;28;20430;-64
2022/04/10 08:57:11;;;;;;;4.22;1.42;;;17.70;83.40;;;;;;5093339;28;20448;-63
2022/04/10 08:59:37;;;;;;;4.97;1.65;;;17.70;83.20;;;;;;5082243;28;20048;-67
2022/04/10 09:02:03;;;;;;;6.07;1.80;;;17.90;83.40;;;;;;5076398;28;20063;-69
2022/04/10 09:04:31;;;;;;;4.65;1.80;;;;;;;;;;5076523;28;20479;-64
2022/04/10 09:07:05;;;;;;;6.50;1.90;;;18.00;83.30;;;;;;5073387;28;20040;-62
2022/04/10 09:09:31;;;;;;;6.63;1.83;;;18.10;83.30;;;;;;5073058;28;20064;-65
2022/04/10 09:11:57;;;;;;;6.75;1.65;;;17.90;83.20;;;;;;5076225;28;20490;-67
2022/04/10 09:14:27;;;;;;;5.40;1.63;;;18.00;80.20;;;;;;5064755;28;20044;-63
2022/04/10 09:17:19;;;;;;;4.97;2.00;;;18.10;83.20;;;;;;5072083;28;20052;-64
2022/04/10 09:19:51;;;;;;;5.68;1.60;;;18.20;83.10;;;;;;5064775;28;20124;-62
2022/04/10 09:22:27;;;;;;;5.60;2.20;;;18.20;83.00;;;;;;5087279;28;20040;-64
2022/04/10 09:25:17;;;;;;;4.50;1.70;;;18.10;79.00;;;;;;5084189;28;20052;-65
2022/04/10 09:27:46;;;;;;;5.55;1.52;;;18.10;83.20;;;;;;5071854;28;20128;-62
2022/04/10 09:30:13;;;;;;;6.15;2.20;;;18.10;83.30;;;;;;5072954;28;20110;-62
2022/04/10 09:32:51;;;;;;;3.33;1.38;;;18.20;83.50;;;;;;5082099;28;20040;-64
2022/04/10 09:35:19;;;;;;;5.65;1.95;;;18.00;83.20;;;;;;5081296;28;20044;-62
2022/04/10 09:37:50;;;;;;;7.53;1.75;;;18.30;83.50;;;;;;5075056;28;20102;-66
2022/04/10 09:40:35;;;;;;;4.53;1.60;;;18.00;83.30;;;;;;5072776;28;20040;-68
2022/04/10 09:43:10;;;;;;;4.45;1.70;;;18.20;83.50;;;;;;5075184;28;20047;-62
2022/04/10 09:45:46;;;;;;;5.10;1.73;;;18.00;79.00;;;;;;5089099;28;20120;-66
2022/04/10 09:48:21;;;;;;;4.70;1.58;;;17.90;83.50;;;;;;5071637;28;20044;-63
2022/04/10 09:50:48;;;;;;;3.55;1.50;;;18.00;83.60;;;;;;5074132;28;20045;-64
2022/04/10 09:53:14;;;;;;;4.97;1.73;;;18.10;83.60;;;;;;5077999;28;20040;-63
2022/04/10 09:55:41;;;;;;;4.68;1.77;;;18.10;83.60;;;;;;5093924;28;20052;-63
2022/04/10 09:58:10;;;;;;;4.97;1.55;;;17.90;83.60;;;;;;5094913;28;20040;-64
2022/04/10 10:00:40;;;;;;;3.78;1.60;;;18.10;80.80;;;;;;5095676;28;20528;-63
2022/04/10 10:03:09;;;;;;;6.38;1.73;;;17.90;83.30;;;;;;5097337;28;20127;-64
2022/04/10 10:05:35;;;;;;;5.18;1.80;;;18.00;83.30;;;;;;5094609;28;20055;-65
2022/04/10 10:08:02;;;;;;;4.55;1.50;;;18.10;83.50;;;;;;5071082;28;20052;-69
2022/04/10 10:10:32;;;;;;;4.82;1.55;;;18.10;83.40;;;;;;5082965;28;20058;-63
2022/04/10 10:13:02;;;;;;;6.15;1.67;;;18.00;83.30;;;;;;5096855;28;20058;-64
2022/04/10 10:15:28;;;;;;;5.80;1.67;;;18.00;83.20;;;;;;5096723;28;20044;-64
2022/04/10 10:17:54;;;;;;;4.85;1.45;;;18.00;83.90;;;;;;5089959;28;20097;-63
2022/04/10 10:20:20;;;;;;;4.70;1.70;;;18.10;83.20;;;;;;5083897;28;20112;-63
2022/04/10 10:22:46;;;;;;;4.18;1.23;;;18.00;83.30;;;;;;5096815;28;20073;-64
2022/04/10 10:25:24;;;;;;;5.88;1.63;;;17.90;83.20;;;;;;5090769;28;20054;-66
2022/04/10 10:28:28;;;;;;;4.75;1.63;;;18.00;83.30;;;;;;5083747;28;20501;-62
2022/04/10 10:31:02;;;;;;;4.63;1.40;;;18.20;83.50;;;;;;5081310;28;20043;-63
2022/04/10 10:33:28;;;;;;;4.97;1.40;;;18.00;81.50;;;;;;5095695;28;20397;-67
2022/04/10 10:35:58;;;;;;;5.40;1.65;;;17.90;83.30;;;;;;5095801;28;20040;-64
2022/04/10 10:38:30;;;;;;;4.95;1.65;;;17.90;79.60;;;;;;5094898;28;20036;-63
2022/04/10 10:41:18;;;;;;;5.28;1.50;;;18.20;81.20;;;;;;5093207;28;20044;-64
2022/04/10 10:43:44;;;;;;;4.60;1.25;;;17.90;83.20;;;;;;5095265;28;20078;-64
2022/04/10 10:46:32;;;;;;;4.50;1.20;;;17.90;80.70;;;;;;5076059;28;20048;-62
2022/04/10 10:49:20;;;;;;;5.60;1.60;;;18.10;78.90;;;;;;5075756;28;20398;-68
2022/04/10 10:51:46;;;;;;;5.07;1.52;;;18.00;83.30;;;;;;5075667;28;20044;-63
2022/04/10 10:54:18;;;;;;;2.42;0.95;;;17.80;80.70;;;;;;5094545;28;20052;-63
2022/04/10 10:56:46;;;;;;;3.95;1.20;;;18.00;83.40;;;;;;5096426;28;20444;-63
2022/04/10 10:59:24;;;;;;;4.63;1.52;;;18.10;83.50;;;;;;5077812;28;20107;-64
2022/04/10 11:02:11;;;;;;;5.32;1.50;;;;;;;;;;5088125;28;20044;-63
2022/04/10 11:04:44;;;;;;;3.50;1.20;;;18.00;83.50;;;;;;5090432;28;20508;-62
2022/04/10 11:07:19;;;;;;;3.65;1.10;;;18.10;83.60;;;;;;5076652;28;20472;-62
2022/04/10 11:09:58;;;;;;;4.25;1.27;;;18.00;82.50;;;;;;5094982;28;20056;-63
2022/04/10 11:12:53;;;;;;;2.65;1.08;;;18.10;83.80;;;;;;5090777;28;20040;-62
2022/04/10 11:15:23;;;;;;;3.47;1.20;;;18.00;83.70;;;;;;5094248;28;20067;-62
2022/04/10 11:17:49;;;;;;;5.78;1.75;;;18.10;83.70;;;;;;5093812;28;20509;-62
2022/04/10 11:20:17;;;;;;;3.78;1.42;;;18.10;81.00;;;;;;5075208;28;20036;-62
2022/04/10 11:22:47;;;;;;;3.10;1.00;;;18.10;83.50;;;;;;5078619;28;20056;-64
2022/04/10 11:25:13;;;;;;;4.22;1.33;;;18.10;83.40;;;;;;5078409;28;20036;-62
2022/04/10 11:27:58;;;;;;;3.70;0.93;;;18.30;83.50;;;;;;5075242;28;20475;-62
2022/04/10 11:30:25;;;;;;;7.90;1.75;;;18.40;83.40;;;;;;5075691;28;20047;-62
2022/04/10 11:32:52;;;;;;;4.13;1.10;;;18.40;83.30;;;;;;5085584;28;20391;-66
2022/04/10 11:35:23;;;;;;;4.53;1.35;;;18.10;83.10;;;;;;5069252;28;20075;-65
2022/04/10 11:37:51;;;;;;;5.53;1.20;;;18.10;83.30;;;;;;5094405;28;20085;-62
2022/04/10 11:40:47;;;;;;;5.32;1.33;;;18.30;83.20;;;;;;5085422;28;20119;-62
2022/04/10 11:43:15;;;;;;;3.53;1.10;;;18.30;83.20;;;;;;5071985;28;20135;-62
2022/04/10 11:45:41;;;;;;;4.35;1.23;;;18.30;83.00;;;;;;5072807;28;20041;-62
2022/04/10 11:48:08;;;;;;;4.03;1.20;;;18.40;83.00;;;;;;5053555;28;20167;-63
2022/04/10 11:50:34;;;;;;;3.25;0.90;;;;;;;;;;5054930;28;20048;-65
2022/04/10 11:53:11;;;;;;;2.38;1.08;;;18.40;83.10;;;;;;5068586;28;20080;-65
2022/04/10 11:55:38;;;;;;;3.33;1.10;;;18.20;82.00;;;;;;5072458;28;20044;-65
2022/04/10 11:58:15;;;;;;;4.32;1.35;;;18.20;78.90;;;;;;5070782;28;20060;-63
2022/04/10 12:00:45;;;;;;;3.28;1.20;;;18.80;78.70;;;;;;5047510;28;20052;-64
2022/04/10 12:03:11;;;;;;;4.63;1.35;;;18.30;83.00;;;;;;5057400;28;20498;-63
2022/04/10 12:05:37;;;;;;;4.00;1.20;;;18.60;83.30;;;;;;5070349;28;20115;-62
2022/04/10 12:08:04;;;;;;;3.22;1.17;;;18.40;83.10;;;;;;5072240;28;20547;-63
2022/04/10 12:10:30;;;;;;;3.22;1.10;;;18.20;83.00;;;;;;5066073;28;20253;-62
2022/04/10 12:12:56;;;;;;;3.78;1.20;;;;;;;;;;5071054;28;20486;-68
2022/04/10 12:15:22;;;;;;;5.70;1.27;;;18.30;83.00;;;;;;5074943;28;20051;-62
2022/04/10 12:18:02;;;;;;;3.13;1.00;;;18.30;83.00;;;;;;5092484;28;20950;-62
2022/04/10 12:20:28;;;;;;;4.82;1.40;;;18.40;83.00;;;;;;5087862;28;20056;-62
2022/04/10 12:22:54;;;;;;;4.15;1.27;;;18.50;80.40;;;;;;5075588;28;20044;-63
2022/04/10 12:25:19;;;;;;;3.47;1.10;;;18.50;83.20;;;;;;5040816;28;20110;-66
2022/04/10 12:27:46;;;;;;;5.88;1.30;;;;;;;;;;5074316;28;20040;-62
2022/04/10 12:30:13;;;;;;;3.92;1.30;;;18.10;82.90;;;;;;5072534;28;20413;-62
2022/04/10 12:32:39;;;;;;;4.30;1.20;;;18.20;83.10;;;;;;5072986;28;20052;-62
2022/04/10 12:35:12;;;;;;;6.07;1.25;;;18.40;82.70;;;;;;5078791;28;20097;-63
2022/04/10 12:37:48;;;;;;;;;;;18.40;80.50;;;;;;5080904;28;20269;-62
2022/04/10 12:40:24;;;;;;;5.82;1.20;;;18.40;83.30;;;;;;5056140;28;19926;-62
2022/04/10 12:42:50;;;;;;;4.43;1.50;;;18.50;83.40;;;;;;5057499;28;20055;-63
2022/04/10 12:45:16;;;;;;;2.78;1.13;;;18.40;83.30;;;;;;5057178;28;20040;-62
2022/04/10 12:47:45;;;;;;;2.70;1.10;;;18.30;83.10;;;;;;5039079;28;20056;-62
2022/04/10 12:50:18;;;;;;;4.95;1.30;;;18.40;83.20;;;;;;5073340;28;20048;-63
2022/04/10 12:52:44;;;;;;;3.70;1.10;;;;;;;;;;5073390;28;20801;-62
2022/04/10 12:55:16;;;;;;;4.57;1.50;;;18.20;83.40;;;;;;5073375;28;20052;-62
2022/04/10 12:57:43;;;;;;;4.22;1.33;;;18.50;83.40;;;;;;5074746;28;20052;-63
2022/04/10 13:00:22;;;;;;;2.97;0.80;;;18.20;82.00;;;;;;5060268;28;20048;-64
2022/04/10 13:02:48;;;;;;;5.82;1.10;;;18.30;83.40;;;;;;5076067;28;20045;-63
2022/04/10 13:05:16;;;;;;;4.43;1.05;;;18.50;83.40;;;;;;5072583;28;20398;-62
2022/04/10 13:07:59;;;;;;;3.33;0.85;;;18.30;83.20;;;;;;5074413;28;20044;-63
2022/04/10 13:10:25;;;;;;;5.32;1.20;;;18.40;83.20;;;;;;5072992;28;20052;-63
2022/04/10 13:13:05;;;;;;;5.63;2.35;;;18.20;79.70;;;;;;5073318;28;20043;-63